Time;durP1;ratioP1;P1;durP2;ratioP2;P2;SDS_P1;SDS_P2;PMS_P1;PMS_P2;Temp;Humidity;BMP_temperature;BMP_pressure;BME280_temperature;BME280_humidity;BME280_pressure;Samples;Min_cycle;Max_cycle;Signal;HPM_P1;HPM_P2
2023/10/08 00:02:22;;;;;;;35.25;28.63;;;;;;;;;;10137103;28;20057;-74
2023/10/08 00:07:14;;;;;;;33.45;26.80;;;;;;;;;;10145704;28;20083;-71
2023/10/08 00:12:08;;;;;;;35.40;27.13;;;;;;;;;;10143937;28;20052;-73
2023/10/08 00:17:00;;;;;;;32.60;26.88;;;;;;;;;;10145149;28;20350;-74
2023/10/08 00:21:53;;;;;;;33.67;27.05;;;;;;;;;;10145362;28;20064;-74
2023/10/08 00:26:46;;;;;;;32.13;27.40;;;;;;;;;;10144996;28;20060;-73
2023/10/08 00:31:40;;;;;;;32.97;28.15;;;;;;;;;;10144305;28;20147;-72
2023/10/08 00:36:34;;;;;;;39.85;29.75;;;;;;;;;;10145229;28;20071;-74
2023/10/08 00:41:32;;;;;;;38.63;28.70;;;;;;;;;;10142128;28;20037;-72
2023/10/08 00:46:26;;;;;;;50.83;30.23;;;;;;;;;;10144857;28;20040;-74
2023/10/08 00:56:18;;;;;;;37.40;27.45;;;;;;;;;;10143812;28;20044;-74
2023/10/08 01:01:11;;;;;;;34.22;28.67;;;;;;;;;;10141990;28;20106;-74
2023/10/08 01:06:04;;;;;;;37.92;29.65;;;;;;;;;;10111400;28;20072;-73
2023/10/08 01:11:00;;;;;;;41.90;30.35;;;;;;;;;;10135977;28;20044;-73
2023/10/08 01:15:55;;;;;;;38.15;28.05;;;;;;;;;;10142139;28;20047;-75
2023/10/08 01:25:50;;;;;;;39.15;29.48;;;;;;;;;;10143705;28;20075;-74
2023/10/08 01:30:46;;;;;;;33.90;27.92;;;;;;;;;;10108701;28;20051;-74
2023/10/08 01:35:39;;;;;;;35.45;27.42;;;;;;;;;;10140464;28;20048;-74
2023/10/08 01:40:31;;;;;;;32.88;28.17;;;;;;;;;;10111172;28;20040;-73
2023/10/08 01:45:24;;;;;;;36.15;28.40;;;;;;;;;;10140365;28;20041;-74
2023/10/08 01:50:22;;;;;;;41.17;30.08;;;;;;;;;;10115837;28;20049;-72
2023/10/08 01:55:18;;;;;;;34.80;28.93;;;;;;;;;;10143520;28;20044;-72
2023/10/08 02:00:11;;;;;;;36.95;30.10;;;;;;;;;;10141157;28;20136;-75
2023/10/08 02:05:04;;;;;;;42.10;32.58;;;;;;;;;;10123054;28;20078;-74
2023/10/08 02:09:57;;;;;;;33.78;28.10;;;;;;;;;;10107265;28;20054;-74
2023/10/08 02:14:49;;;;;;;33.10;28.40;;;;;;;;;;10141275;28;20036;-75
2023/10/08 02:19:41;;;;;;;34.83;28.42;;;;;;;;;;10123335;28;20050;-75
2023/10/08 02:24:33;;;;;;;34.88;27.08;;;;;;;;;;10108636;28;20074;-73
2023/10/08 02:29:28;;;;;;;30.30;26.75;;;;;;;;;;10139767;28;20044;-73
2023/10/08 02:34:20;;;;;;;33.10;26.10;;;;;;;;;;10141244;28;20051;-74
2023/10/08 02:39:21;;;;;;;31.20;27.05;;;;;;;;;;10140215;28;20047;-74
2023/10/08 02:44:14;;;;;;;36.72;28.20;;;;;;;;;;10108414;28;20532;-75
2023/10/08 02:49:10;;;;;;;34.28;28.90;;;;;;;;;;10140431;28;20028;-74
2023/10/08 02:54:05;;;;;;;31.92;26.92;;;;;;;;;;10140510;28;20051;-75
2023/10/08 02:58:57;;;;;;;35.70;27.90;;;;;;;;;;10139970;28;20463;-74
2023/10/08 03:03:49;;;;;;;36.92;29.80;;;;;;;;;;10123975;28;20049;-75
2023/10/08 03:08:47;;;;;;;33.47;28.02;;;;;;;;;;10139945;28;20045;-74
2023/10/08 03:13:39;;;;;;;34.15;27.48;;;;;;;;;;10139468;28;20056;-74
2023/10/08 03:18:42;;;;;;;31.73;26.92;;;;;;;;;;10124395;28;20127;-74
2023/10/08 03:23:34;;;;;;;33.78;27.70;;;;;;;;;;10146740;28;20459;-73
2023/10/08 03:28:34;;;;;;;33.40;27.77;;;;;;;;;;10147579;28;20044;-74
2023/10/08 03:33:29;;;;;;;35.20;27.23;;;;;;;;;;10137771;28;20119;-73
2023/10/08 03:38:28;;;;;;;31.23;26.70;;;;;;;;;;10130766;28;20044;-75
2023/10/08 03:43:29;;;;;;;32.70;26.20;;;;;;;;;;10146449;28;20048;-74
2023/10/08 03:48:22;;;;;;;33.90;28.20;;;;;;;;;;10147040;28;20072;-74
2023/10/08 03:53:16;;;;;;;34.00;26.73;;;;;;;;;;10144652;28;20059;-74
2023/10/08 03:58:27;;;;;;;29.23;24.65;;;;;;;;;;10145749;28;20094;-74
2023/10/08 04:03:41;;;;;;;30.33;26.15;;;;;;;;;;10144150;28;20386;-73
2023/10/08 04:08:42;;;;;;;29.83;25.58;;;;;;;;;;10139218;28;20036;-74
2023/10/08 04:13:39;;;;;;;29.23;25.48;;;;;;;;;;10136161;28;20048;-73
2023/10/08 04:18:30;;;;;;;31.10;25.30;;;;;;;;;;10145813;28;20041;-75
2023/10/08 04:23:22;;;;;;;32.50;24.50;;;;;;;;;;10143155;28;20527;-74
2023/10/08 04:28:17;;;;;;;32.08;25.45;;;;;;;;;;10144730;28;20066;-74
2023/10/08 04:33:12;;;;;;;29.83;26.45;;;;;;;;;;10143669;28;20139;-75
2023/10/08 04:38:08;;;;;;;34.03;25.98;;;;;;;;;;10143904;28;20362;-75
2023/10/08 04:43:02;;;;;;;31.33;25.70;;;;;;;;;;10142756;28;20451;-75
2023/10/08 04:47:58;;;;;;;30.98;25.92;;;;;;;;;;10144708;28;20044;-75
2023/10/08 04:52:58;;;;;;;30.30;26.40;;;;;;;;;;10142207;28;20146;-75
2023/10/08 04:57:50;;;;;;;28.98;24.38;;;;;;;;;;10140180;28;20090;-75
2023/10/08 05:02:53;;;;;;;29.88;25.65;;;;;;;;;;10125130;28;20467;-74
2023/10/08 05:12:45;;;;;;;27.90;23.83;;;;;;;;;;10142830;28;20033;-73
2023/10/08 05:17:56;;;;;;;26.05;21.75;;;;;;;;;;10143010;28;20045;-74
2023/10/08 05:22:55;;;;;;;25.83;22.00;;;;;;;;;;10142949;28;20049;-74
2023/10/08 05:33:25;;;;;;;23.05;20.17;;;;;;;;;;10143417;28;20041;-74
2023/10/08 05:38:02;;;;;;;23.13;19.15;;;;;;;;;;10128155;28;20132;-73
2023/10/08 05:43:01;;;;;;;20.63;18.10;;;;;;;;;;10141133;28;20086;-74
2023/10/08 05:48:13;;;;;;;22.63;19.50;;;;;;;;;;10134489;28;20382;-74
2023/10/08 05:53:19;;;;;;;22.65;19.45;;;;;;;;;;10136198;28;20381;-74
2023/10/08 05:58:14;;;;;;;23.33;17.30;;;;;;;;;;10145460;28;20048;-73
2023/10/08 06:03:31;;;;;;;19.83;16.65;;;;;;;;;;10143671;28;20041;-75
2023/10/08 06:08:48;;;;;;;18.80;16.83;;;;;;;;;;10133552;28;20044;-74
2023/10/08 06:13:50;;;;;;;23.45;18.25;;;;;;;;;;10145026;28;20470;-72
2023/10/08 06:18:43;;;;;;;18.83;16.17;;;;;;;;;;10144845;28;20375;-74
2023/10/08 06:23:37;;;;;;;17.20;15.50;;;;;;;;;;10143979;28;20110;-75
2023/10/08 06:28:29;;;;;;;20.40;16.80;;;;;;;;;;10144250;28;20128;-73
2023/10/08 06:33:22;;;;;;;19.20;16.58;;;;;;;;;;10144367;28;20102;-73
2023/10/08 06:38:14;;;;;;;17.80;15.18;;;;;;;;;;10144217;28;20056;-74
2023/10/08 06:43:24;;;;;;;25.42;17.85;;;;;;;;;;10143778;28;20119;-74
2023/10/08 06:48:20;;;;;;;24.92;20.50;;;;;;;;;;10143559;28;20047;-73
2023/10/08 06:53:14;;;;;;;30.00;23.20;;;;;;;;;;10143538;28;20048;-75
2023/10/08 06:58:07;;;;;;;31.25;25.75;;;;;;;;;;10143226;28;20044;-73
2023/10/08 07:03:01;;;;;;;30.17;26.13;;;;;;;;;;10143525;28;20072;-72
2023/10/08 07:07:54;;;;;;;27.13;22.35;;;;;;;;;;10143418;28;20143;-73
2023/10/08 07:12:46;;;;;;;30.98;25.25;;;;;;;;;;10142606;28;20041;-72
2023/10/08 07:17:40;;;;;;;40.20;30.25;;;;;;;;;;10138873;28;20049;-71
2023/10/08 07:22:33;;;;;;;36.72;30.98;;;;;;;;;;10140094;28;20086;-74
2023/10/08 07:27:31;;;;;;;36.22;27.92;;;;;;;;;;10142136;28;20135;-73
2023/10/08 07:32:25;;;;;;;32.55;27.60;;;;;;;;;;10140419;28;20059;-73
2023/10/08 07:37:18;;;;;;;35.38;27.33;;;;;;;;;;10138324;28;20121;-73
2023/10/08 07:42:10;;;;;;;29.27;25.90;;;;;;;;;;10138842;28;20072;-74
2023/10/08 07:47:11;;;;;;;30.98;26.00;;;;;;;;;;10140228;28;20041;-73
2023/10/08 07:52:04;;;;;;;27.60;24.05;;;;;;;;;;10142956;28;20045;-74
2023/10/08 07:57:25;;;;;;;28.50;25.50;;;;;;;;;;10143209;28;20044;-74
2023/10/08 08:02:11;;;;;;;24.45;20.50;;;;;;;;;;10141513;28;20083;-75
2023/10/08 08:07:04;;;;;;;26.08;19.45;;;;;;;;;;10148214;28;20040;-73
2023/10/08 08:11:57;;;;;;;31.40;23.15;;;;;;;;;;10128115;28;20068;-66
2023/10/08 08:16:49;;;;;;;22.08;19.67;;;;;;;;;;10149653;28;20368;-67
2023/10/08 08:21:45;;;;;;;20.60;18.35;;;;;;;;;;10138765;28;20093;-67
2023/10/08 08:26:43;;;;;;;24.52;19.52;;;;;;;;;;10118861;28;20482;-66
2023/10/08 08:31:36;;;;;;;25.38;20.30;;;;;;;;;;10151998;28;20136;-66
2023/10/08 08:36:28;;;;;;;23.17;20.60;;;;;;;;;;10135770;28;20060;-66
2023/10/08 08:41:22;;;;;;;28.38;20.10;;;;;;;;;;10148144;28;20051;-65
2023/10/08 08:46:15;;;;;;;23.25;19.20;;;;;;;;;;10130862;28;20174;-67
2023/10/08 08:51:09;;;;;;;26.40;17.38;;;;;;;;;;10133175;28;20045;-67
2023/10/08 08:56:04;;;;;;;18.08;15.40;;;;;;;;;;10147265;28;20040;-67
2023/10/08 09:00:56;;;;;;;15.93;14.32;;;;;;;;;;10147610;28;20049;-67
2023/10/08 09:05:50;;;;;;;17.48;15.32;;;;;;;;;;10130111;28;20474;-66
2023/10/08 09:10:52;;;;;;;17.60;15.40;;;;;;;;;;10147285;28;20049;-64
2023/10/08 09:15:44;;;;;;;18.85;15.55;;;;;;;;;;10134110;28;20097;-66
2023/10/08 09:20:43;;;;;;;18.15;16.15;;;;;;;;;;10128760;28;20044;-65
2023/10/08 09:25:36;;;;;;;19.40;16.23;;;;;;;;;;10146820;28;20139;-65
2023/10/08 09:30:33;;;;;;;17.10;15.30;;;;;;;;;;10129417;28;20048;-66
2023/10/08 09:35:26;;;;;;;21.25;17.67;;;;;;;;;;10146550;28;20098;-66
2023/10/08 09:40:21;;;;;;;21.45;16.98;;;;;;;;;;10128334;28;20076;-66
2023/10/08 09:45:13;;;;;;;17.88;16.00;;;;;;;;;;10129056;28;20139;-67
2023/10/08 09:50:11;;;;;;;17.25;15.52;;;;;;;;;;10145303;28;20070;-67
2023/10/08 09:55:10;;;;;;;19.17;17.25;;;;;;;;;;10145375;28;20044;-65
2023/10/08 10:00:05;;;;;;;16.90;15.27;;;;;;;;;;10145571;28;20441;-66
2023/10/08 10:04:57;;;;;;;24.48;16.73;;;;;;;;;;10145269;28;20049;-66
2023/10/08 10:09:54;;;;;;;18.70;15.15;;;;;;;;;;10143736;28;20037;-66
2023/10/08 10:14:47;;;;;;;18.90;14.30;;;;;;;;;;10144613;28;20048;-67
2023/10/08 10:19:45;;;;;;;16.95;15.23;;;;;;;;;;10144588;28;20462;-66
2023/10/08 10:24:41;;;;;;;17.80;13.00;;;;;;;;;;10144545;28;20062;-66
2023/10/08 10:29:33;;;;;;;17.40;13.45;;;;;;;;;;10144174;28;20090;-65
2023/10/08 10:34:27;;;;;;;15.48;12.05;;;;;;;;;;10144532;28;20512;-66
2023/10/08 10:39:31;;;;;;;14.73;10.00;;;;;;;;;;10144581;28;20561;-65
2023/10/08 10:44:24;;;;;;;19.42;11.40;;;;;;;;;;10144914;28;20040;-64
2023/10/08 10:54:20;;;;;;;13.15;11.85;;;;;;;;;;10143645;28;20047;-66
2023/10/08 10:59:53;;;;;;;12.57;11.27;;;;;;;;;;10144289;28;20064;-66
2023/10/08 11:04:47;;;;;;;14.13;11.50;;;;;;;;;;10141559;28;20089;-67
2023/10/08 11:09:44;;;;;;;14.75;10.02;;;;;;;;;;10143274;28;20040;-66
2023/10/08 11:14:41;;;;;;;20.92;10.52;;;;;;;;;;10123802;28;20098;-65
2023/10/08 11:19:33;;;;;;;14.63;11.38;;;;;;;;;;10111119;28;20098;-64
2023/10/08 11:24:36;;;;;;;18.75;10.75;;;;;;;;;;10140437;28;20040;-65
2023/10/08 11:29:29;;;;;;;10.50;9.40;;;;;;;;;;10132730;28;20033;-65
2023/10/08 11:34:24;;;;;;;13.57;9.45;;;;;;;;;;10132490;28;20048;-64
2023/10/08 11:39:21;;;;;;;13.23;10.32;;;;;;;;;;10173113;28;20075;-66
2023/10/08 11:44:14;;;;;;;19.85;11.23;;;;;;;;;;10178112;28;20075;-64
2023/10/08 11:49:06;;;;;;;12.48;9.05;;;;;;;;;;10190993;28;20138;-66
2023/10/08 11:54:00;;;;;;;14.07;10.88;;;;;;;;;;10190507;28;20044;-65
2023/10/08 11:58:52;;;;;;;14.73;9.70;;;;;;;;;;10190188;28;20164;-63
2023/10/08 12:03:50;;;;;;;14.95;10.52;;;;;;;;;;10171899;28;20059;-64
2023/10/08 12:08:45;;;;;;;20.13;10.80;;;;;;;;;;10168535;28;20044;-65
2023/10/08 12:13:44;;;;;;;19.33;10.00;;;;;;;;;;10168680;28;20089;-65
2023/10/08 12:18:39;;;;;;;15.15;9.43;;;;;;;;;;10188505;28;20055;-64
2023/10/08 12:23:33;;;;;;;15.35;10.45;;;;;;;;;;10183081;28;20046;-64
2023/10/08 12:28:29;;;;;;;14.23;9.65;;;;;;;;;;10177396;28;20084;-64
2023/10/08 12:33:21;;;;;;;16.38;10.15;;;;;;;;;;10183015;28;20528;-64
2023/10/08 12:38:14;;;;;;;13.52;9.55;;;;;;;;;;10189314;28;20044;-64
2023/10/08 12:43:07;;;;;;;14.38;10.40;;;;;;;;;;10170585;28;20044;-63
2023/10/08 12:47:59;;;;;;;12.70;9.55;;;;;;;;;;10163509;28;20428;-65
2023/10/08 12:52:55;;;;;;;15.38;11.55;;;;;;;;;;10166752;28;20074;-64
2023/10/08 12:57:53;;;;;;;14.80;9.15;;;;;;;;;;10180731;28;20040;-64
2023/10/08 13:02:53;;;;;;;18.70;11.07;;;;;;;;;;10164303;28;20049;-64
2023/10/08 13:07:45;;;;;;;15.98;9.88;;;;;;;;;;10188296;28;20393;-63
2023/10/08 13:12:37;;;;;;;15.02;10.30;;;;;;;;;;10188233;28;20517;-65
2023/10/08 13:17:29;;;;;;;15.00;9.80;;;;;;;;;;10179739;28;20048;-64
2023/10/08 13:22:24;;;;;;;10.18;8.70;;;;;;;;;;10158796;28;20169;-61
2023/10/08 13:27:16;;;;;;;17.38;9.82;;;;;;;;;;10172735;28;20082;-65
2023/10/08 13:32:17;;;;;;;18.02;10.23;;;;;;;;;;10171597;28;20386;-66
2023/10/08 13:37:08;;;;;;;13.80;8.95;;;;;;;;;;10161343;28;20048;-65
2023/10/08 13:42:01;;;;;;;14.88;9.18;;;;;;;;;;10155311;28;20052;-64
2023/10/08 13:46:57;;;;;;;13.38;9.27;;;;;;;;;;10161101;28;20048;-63
2023/10/08 13:51:55;;;;;;;15.40;8.57;;;;;;;;;;10157078;28;20052;-64
2023/10/08 13:56:48;;;;;;;15.63;8.55;;;;;;;;;;10176489;28;20043;-64
2023/10/08 14:01:46;;;;;;;17.25;7.93;;;;;;;;;;10180848;28;20048;-64
2023/10/08 14:06:40;;;;;;;;;;;;;;;;;;10186862;28;20044;-64
2023/10/08 14:11:33;;;;;;;9.38;7.50;;;;;;;;;;10185998;28;20350;-65
2023/10/08 14:16:28;;;;;;;17.60;8.60;;;;;;;;;;10186267;28;20093;-63
2023/10/08 14:21:23;;;;;;;14.30;7.53;;;;;;;;;;10147088;28;20048;-68
2023/10/08 14:26:15;;;;;;;14.60;8.27;;;;;;;;;;10145527;28;20147;-67
2023/10/08 14:31:08;;;;;;;16.17;9.80;;;;;;;;;;10144773;28;20539;-66
2023/10/08 14:46:21;;;;;;;16.15;6.85;;;;;;;;;;10140560;28;20076;-66
2023/10/08 14:51:19;;;;;;;14.07;8.65;;;;;;;;;;10139960;28;20127;-67
2023/10/08 14:56:12;;;;;;;18.73;9.85;;;;;;;;;;10140053;28;20044;-67
2023/10/08 15:01:04;;;;;;;23.35;13.60;;;;;;;;;;10137287;28;20390;-67
2023/10/08 15:05:56;;;;;;;12.35;10.40;;;;;;;;;;10134715;28;20474;-67
2023/10/08 15:10:49;;;;;;;14.50;8.98;;;;;;;;;;10157574;28;20043;-67
2023/10/08 15:15:42;;;;;;;24.27;9.73;;;;;;;;;;10155171;28;20101;-67
2023/10/08 15:20:34;;;;;;;25.05;10.02;;;;;;;;;;10170049;28;20537;-66
2023/10/08 15:25:27;;;;;;;13.80;9.88;;;;;;;;;;10130880;28;20493;-67
2023/10/08 15:30:20;;;;;;;14.93;9.85;;;;;;;;;;10127676;28;20036;-68
2023/10/08 15:35:19;;;;;;;12.02;6.68;;;;;;;;;;10132250;28;20044;-69
2023/10/08 15:40:18;;;;;;;22.05;10.48;;;;;;;;;;10154532;28;20043;-65
2023/10/08 15:45:13;;;;;;;15.57;7.85;;;;;;;;;;10177361;28;20138;-70
2023/10/08 15:50:10;;;;;;;25.83;7.32;;;;;;;;;;10179738;28;20097;-70
2023/10/08 15:55:03;;;;;;;11.80;6.50;;;;;;;;;;10179170;28;20051;-70
2023/10/08 15:59:55;;;;;;;21.90;7.03;;;;;;;;;;10183227;28;20135;-70
2023/10/08 16:04:47;;;;;;;12.45;6.57;;;;;;;;;;10182006;28;20366;-70
2023/10/08 16:09:42;;;;;;;12.27;5.55;;;;;;;;;;10176574;28;20152;-70
2023/10/08 16:14:34;;;;;;;17.45;6.47;;;;;;;;;;10161532;28;20140;-71
2023/10/08 16:19:26;;;;;;;16.77;7.05;;;;;;;;;;10145298;28;20066;-68
2023/10/08 16:24:18;;;;;;;10.98;6.97;;;;;;;;;;10157480;28;20053;-68
2023/10/08 16:29:10;;;;;;;16.92;6.25;;;;;;;;;;10163034;28;20386;-68
2023/10/08 16:34:03;;;;;;;19.20;7.70;;;;;;;;;;10150906;28;20068;-68
2023/10/08 16:38:55;;;;;;;18.17;9.25;;;;;;;;;;10168881;28;20040;-67
2023/10/08 16:43:47;;;;;;;14.18;6.47;;;;;;;;;;10187260;28;20542;-68
2023/10/08 16:48:39;;;;;;;17.73;6.53;;;;;;;;;;10178539;28;20138;-67
2023/10/08 16:53:31;;;;;;;21.08;8.45;;;;;;;;;;10107158;28;20049;-71
2023/10/08 16:58:22;;;;;;;20.85;9.20;;;;;;;;;;10146808;28;20335;-70
2023/10/08 17:03:16;;;;;;;28.55;7.75;;;;;;;;;;10146911;28;20602;-69
2023/10/08 17:08:08;;;;;;;14.57;8.50;;;;;;;;;;10146154;28;20048;-68
2023/10/08 17:13:00;;;;;;;27.42;7.95;;;;;;;;;;10145026;28;20102;-68
2023/10/08 17:17:52;;;;;;;22.67;10.35;;;;;;;;;;10147105;28;20143;-69
2023/10/08 17:22:45;;;;;;;14.10;6.88;;;;;;;;;;10141076;28;20106;-69
2023/10/08 17:27:44;;;;;;;23.92;8.73;;;;;;;;;;10146171;28;20036;-69
2023/10/08 17:32:36;;;;;;;16.75;7.63;;;;;;;;;;10139612;28;20075;-69
2023/10/08 17:37:28;;;;;;;17.13;7.95;;;;;;;;;;10143256;28;20040;-69
2023/10/08 17:42:20;;;;;;;15.88;8.90;;;;;;;;;;10145252;28;20151;-69
2023/10/08 17:47:14;;;;;;;21.92;8.35;;;;;;;;;;10144909;28;20383;-69
2023/10/08 17:52:06;;;;;;;16.88;8.20;;;;;;;;;;10144447;28;20040;-69
2023/10/08 17:56:58;;;;;;;17.15;9.07;;;;;;;;;;10145797;28;20093;-68
2023/10/08 18:01:50;;;;;;;16.63;8.27;;;;;;;;;;10145593;28;20049;-69
2023/10/08 18:06:42;;;;;;;11.25;7.20;;;;;;;;;;10143196;28;20470;-70
2023/10/08 18:11:34;;;;;;;21.33;8.38;;;;;;;;;;10140377;28;20090;-69
2023/10/08 18:16:26;;;;;;;18.58;8.73;;;;;;;;;;10139258;28;20052;-67
2023/10/08 18:21:18;;;;;;;18.13;7.10;;;;;;;;;;10137587;28;20045;-69
2023/10/08 18:26:10;;;;;;;18.15;8.73;;;;;;;;;;10140921;28;20385;-69
2023/10/08 18:31:06;;;;;;;12.98;7.18;;;;;;;;;;10139032;28;20529;-69
2023/10/08 18:36:18;;;;;;;21.05;8.80;;;;;;;;;;10138653;28;20094;-69
2023/10/08 18:41:16;;;;;;;14.70;7.63;;;;;;;;;;10120938;28;20087;-67
2023/10/08 18:46:09;;;;;;;17.23;10.52;;;;;;;;;;10137366;28;20078;-69
2023/10/08 18:51:07;;;;;;;14.70;7.95;;;;;;;;;;10136319;28;20083;-69
2023/10/08 18:56:07;;;;;;;16.70;7.77;;;;;;;;;;10136808;28;20048;-71
2023/10/08 19:00:59;;;;;;;12.07;8.27;;;;;;;;;;10135932;28;20523;-68
2023/10/08 19:05:54;;;;;;;15.15;9.55;;;;;;;;;;10136934;28;20048;-70
2023/10/08 19:10:45;;;;;;;19.25;8.60;;;;;;;;;;10135705;28;20052;-69
2023/10/08 19:15:39;;;;;;;15.20;7.65;;;;;;;;;;10136096;28;20456;-61
2023/10/08 19:20:36;;;;;;;14.30;7.03;;;;;;;;;;10134927;28;20493;-70
2023/10/08 19:25:28;;;;;;;13.30;6.55;;;;;;;;;;10121802;28;20453;-69
2023/10/08 19:30:20;;;;;;;36.17;9.73;;;;;;;;;;10137396;28;20419;-71
2023/10/08 19:35:12;;;;;;;14.85;6.72;;;;;;;;;;10133983;28;20037;-71
2023/10/08 19:40:10;;;;;;;17.95;6.88;;;;;;;;;;10161752;28;20135;-71
2023/10/08 19:45:02;;;;;;;12.47;6.67;;;;;;;;;;10165265;28;20178;-71
2023/10/08 19:49:54;;;;;;;17.15;6.15;;;;;;;;;;10168852;28;20083;-70
2023/10/08 19:54:46;;;;;;;19.67;7.00;;;;;;;;;;10163523;28;20040;-71
2023/10/08 19:59:38;;;;;;;14.50;7.07;;;;;;;;;;10151355;28;20056;-70
2023/10/08 20:04:30;;;;;;;14.80;7.05;;;;;;;;;;10166800;28;20052;-70
2023/10/08 20:09:26;;;;;;;13.25;5.95;;;;;;;;;;10179164;28;20203;-71
2023/10/08 20:14:19;;;;;;;12.88;5.43;;;;;;;;;;10180044;28;20041;-68
2023/10/08 20:19:11;;;;;;;13.57;6.72;;;;;;;;;;10182867;28;20425;-70
2023/10/08 20:24:03;;;;;;;13.13;5.22;;;;;;;;;;10172509;28;20369;-70
2023/10/08 20:28:57;;;;;;;17.13;6.20;;;;;;;;;;10179098;28;20536;-70
2023/10/08 20:33:49;;;;;;;10.05;6.40;;;;;;;;;;10179266;28;20040;-72
2023/10/08 20:38:42;;;;;;;13.88;5.22;;;;;;;;;;10181869;28;20056;-71
2023/10/08 20:43:34;;;;;;;10.10;5.82;;;;;;;;;;10169411;28;20068;-71
2023/10/08 20:48:27;;;;;;;19.25;6.50;;;;;;;;;;10163108;28;20048;-71
2023/10/08 20:53:20;;;;;;;14.40;5.78;;;;;;;;;;10186842;28;20043;-70
2023/10/08 20:58:17;;;;;;;18.02;5.32;;;;;;;;;;10185276;28;20055;-71
2023/10/08 21:03:12;;;;;;;15.32;5.85;;;;;;;;;;10178364;28;20060;-71
2023/10/08 21:08:06;;;;;;;15.55;7.07;;;;;;;;;;10185009;28;20058;-69
2023/10/08 21:13:01;;;;;;;15.93;5.78;;;;;;;;;;10174373;28;20043;-72
2023/10/08 21:17:54;;;;;;;14.52;4.90;;;;;;;;;;10179703;28;20109;-71
2023/10/08 21:22:49;;;;;;;12.63;4.57;;;;;;;;;;10187126;28;20469;-71
2023/10/08 21:27:42;;;;;;;21.80;5.93;;;;;;;;;;10187662;28;20105;-71
2023/10/08 21:32:39;;;;;;;13.00;6.03;;;;;;;;;;10186551;28;20131;-68
2023/10/08 21:37:32;;;;;;;15.05;5.65;;;;;;;;;;10184892;28;20044;-71
2023/10/08 21:42:25;;;;;;;15.63;4.85;;;;;;;;;;10182251;28;20032;-71
2023/10/08 21:47:17;;;;;;;23.52;6.18;;;;;;;;;;10182459;28;20087;-71
2023/10/08 21:52:09;;;;;;;13.88;4.90;;;;;;;;;;10176087;28;20397;-71
2023/10/08 21:57:01;;;;;;;16.90;5.28;;;;;;;;;;10181739;28;20495;-71
2023/10/08 22:01:54;;;;;;;20.30;6.20;;;;;;;;;;10181050;28;20139;-70
2023/10/08 22:06:47;;;;;;;20.98;5.88;;;;;;;;;;10148163;28;20142;-72
2023/10/08 22:11:42;;;;;;;12.73;4.15;;;;;;;;;;10184240;28;20036;-70
2023/10/08 22:16:34;;;;;;;25.48;5.68;;;;;;;;;;10184951;28;20040;-70
2023/10/08 22:21:34;;;;;;;12.35;4.78;;;;;;;;;;10184438;28;20134;-71
2023/10/08 22:26:28;;;;;;;17.98;5.13;;;;;;;;;;10171270;28;20056;-71
2023/10/08 22:31:23;;;;;;;10.27;4.45;;;;;;;;;;10184554;28;20040;-71
2023/10/08 22:46:04;;;;;;;21.38;4.70;;;;;;;;;;10183967;28;20069;-72
2023/10/08 22:50:56;;;;;;;9.45;3.95;;;;;;;;;;10184466;28;20451;-71
2023/10/08 22:55:48;;;;;;;18.33;5.18;;;;;;;;;;10150167;28;20110;-71
2023/10/08 23:00:40;;;;;;;11.35;5.15;;;;;;;;;;10144159;28;20041;-71
2023/10/08 23:05:42;;;;;;;24.17;4.90;;;;;;;;;;10143405;28;20123;-70
2023/10/08 23:10:34;;;;;;;12.15;3.83;;;;;;;;;;10143099;28;20417;-67
2023/10/08 23:15:26;;;;;;;14.40;4.07;;;;;;;;;;10143133;28;20040;-72
2023/10/08 23:20:20;;;;;;;19.38;5.60;;;;;;;;;;10140496;28;20055;-71
2023/10/08 23:25:14;;;;;;;11.18;3.40;;;;;;;;;;10140223;28;20102;-70
2023/10/08 23:30:09;;;;;;;16.73;4.20;;;;;;;;;;10140336;28;20048;-71
2023/10/08 23:35:02;;;;;;;15.27;4.68;;;;;;;;;;10140777;28;20055;-71
2023/10/08 23:39:54;;;;;;;13.88;4.55;;;;;;;;;;10146627;28;20102;-70
2023/10/08 23:44:48;;;;;;;19.90;4.55;;;;;;;;;;10147859;28;20094;-71
2023/10/08 23:54:57;;;;;;;21.05;4.93;;;;;;;;;;10148179;28;20425;-71
2023/10/08 23:59:56;;;;;;;15.32;3.78;;;;;;;;;;10147243;28;20079;-72
